sensor_id;sensor_type;location;lat;lon;timestamp;P1;durP1;ratioP1;P2;durP2;ratioP2
12359;SDS011;6244;51.460;7.090;2024-03-08T00:00:12;10.20;;;6.35;;
12359;SDS011;6244;51.460;7.090;2024-03-08T00:05:09;10.98;;;6.22;;
12359;SDS011;6244;51.460;7.090;2024-03-08T00:10:08;13.32;;;6.10;;
12359;SDS011;6244;51.460;7.090;2024-03-08T00:15:06;12.18;;;5.72;;
12359;SDS011;6244;51.460;7.090;2024-03-08T00:20:04;9.98;;;6.20;;
12359;SDS011;6244;51.460;7.090;2024-03-08T00:25:04;9.70;;;5.53;;
12359;SDS011;6244;51.460;7.090;2024-03-08T00:30:03;10.40;;;5.85;;
12359;SDS011;6244;51.460;7.090;2024-03-08T00:35:01;13.77;;;6.93;;
12359;SDS011;6244;51.460;7.090;2024-03-08T00:39:58;13.05;;;6.20;;
12359;SDS011;6244;51.460;7.090;2024-03-08T00:44:54;12.15;;;5.72;;
12359;SDS011;6244;51.460;7.090;2024-03-08T00:49:54;12.70;;;6.15;;
12359;SDS011;6244;51.460;7.090;2024-03-08T00:54:51;8.43;;;5.20;;
12359;SDS011;6244;51.460;7.090;2024-03-08T00:59:48;13.23;;;6.22;;
12359;SDS011;6244;51.460;7.090;2024-03-08T01:04:44;10.93;;;5.40;;
12359;SDS011;6244;51.460;7.090;2024-03-08T01:09:43;12.32;;;6.55;;
12359;SDS011;6244;51.460;7.090;2024-03-08T01:14:40;12.30;;;6.28;;
12359;SDS011;6244;51.460;7.090;2024-03-08T01:19:37;10.05;;;6.25;;
12359;SDS011;6244;51.460;7.090;2024-03-08T01:24:33;12.25;;;5.93;;
12359;SDS011;6244;51.460;7.090;2024-03-08T01:29:32;14.75;;;6.82;;
12359;SDS011;6244;51.460;7.090;2024-03-08T01:40:19;8.90;;;4.78;;
12359;SDS011;6244;51.460;7.090;2024-03-08T01:45:33;8.30;;;5.97;;
12359;SDS011;6244;51.460;7.090;2024-03-08T01:50:33;10.37;;;5.97;;
12359;SDS011;6244;51.460;7.090;2024-03-08T01:55:32;10.07;;;5.97;;
12359;SDS011;6244;51.460;7.090;2024-03-08T02:00:30;11.45;;;5.40;;
12359;SDS011;6244;51.460;7.090;2024-03-08T02:05:30;11.10;;;6.45;;
12359;SDS011;6244;51.460;7.090;2024-03-08T02:10:27;11.65;;;5.65;;
12359;SDS011;6244;51.460;7.090;2024-03-08T02:15:23;9.48;;;5.85;;
12359;SDS011;6244;51.460;7.090;2024-03-08T02:20:22;9.95;;;5.28;;
12359;SDS011;6244;51.460;7.090;2024-03-08T02:25:20;14.00;;;6.07;;
12359;SDS011;6244;51.460;7.090;2024-03-08T02:30:16;12.48;;;6.43;;
12359;SDS011;6244;51.460;7.090;2024-03-08T02:35:13;17.60;;;6.63;;
12359;SDS011;6244;51.460;7.090;2024-03-08T02:40:10;11.40;;;5.32;;
12359;SDS011;6244;51.460;7.090;2024-03-08T02:45:09;11.48;;;6.07;;
12359;SDS011;6244;51.460;7.090;2024-03-08T02:50:06;11.70;;;5.72;;
12359;SDS011;6244;51.460;7.090;2024-03-08T02:55:04;10.77;;;5.57;;
12359;SDS011;6244;51.460;7.090;2024-03-08T03:00:01;12.98;;;6.70;;
12359;SDS011;6244;51.460;7.090;2024-03-08T03:05:00;10.15;;;5.97;;
12359;SDS011;6244;51.460;7.090;2024-03-08T03:10:00;10.23;;;5.68;;
12359;SDS011;6244;51.460;7.090;2024-03-08T03:14:57;10.93;;;5.65;;
12359;SDS011;6244;51.460;7.090;2024-03-08T03:19:54;10.55;;;6.28;;
12359;SDS011;6244;51.460;7.090;2024-03-08T03:24:52;8.90;;;4.82;;
12359;SDS011;6244;51.460;7.090;2024-03-08T03:29:48;8.52;;;5.10;;
12359;SDS011;6244;51.460;7.090;2024-03-08T03:34:47;9.10;;;4.95;;
12359;SDS011;6244;51.460;7.090;2024-03-08T03:39:43;9.88;;;4.50;;
12359;SDS011;6244;51.460;7.090;2024-03-08T03:44:45;11.85;;;6.35;;
12359;SDS011;6244;51.460;7.090;2024-03-08T03:49:42;8.57;;;5.13;;
12359;SDS011;6244;51.460;7.090;2024-03-08T03:54:40;12.68;;;5.72;;
12359;SDS011;6244;51.460;7.090;2024-03-08T03:59:36;10.82;;;5.82;;
12359;SDS011;6244;51.460;7.090;2024-03-08T04:04:34;10.85;;;5.35;;
12359;SDS011;6244;51.460;7.090;2024-03-08T04:09:31;13.70;;;5.80;;
12359;SDS011;6244;51.460;7.090;2024-03-08T04:14:27;9.63;;;5.40;;
12359;SDS011;6244;51.460;7.090;2024-03-08T04:19:23;13.93;;;5.88;;
12359;SDS011;6244;51.460;7.090;2024-03-08T04:24:23;8.85;;;5.53;;
12359;SDS011;6244;51.460;7.090;2024-03-08T04:29:20;9.38;;;5.65;;
12359;SDS011;6244;51.460;7.090;2024-03-08T04:34:17;10.90;;;6.05;;
12359;SDS011;6244;51.460;7.090;2024-03-08T04:39:13;8.05;;;5.97;;
12359;SDS011;6244;51.460;7.090;2024-03-08T04:44:12;9.07;;;5.38;;
12359;SDS011;6244;51.460;7.090;2024-03-08T04:49:08;14.18;;;6.18;;
12359;SDS011;6244;51.460;7.090;2024-03-08T04:54:06;11.18;;;6.00;;
12359;SDS011;6244;51.460;7.090;2024-03-08T04:59:03;11.02;;;5.75;;
12359;SDS011;6244;51.460;7.090;2024-03-08T05:04:04;12.45;;;5.57;;
12359;SDS011;6244;51.460;7.090;2024-03-08T05:09:01;14.55;;;5.97;;
12359;SDS011;6244;51.460;7.090;2024-03-08T05:14:08;12.82;;;6.50;;
12359;SDS011;6244;51.460;7.090;2024-03-08T05:19:06;12.50;;;6.25;;
12359;SDS011;6244;51.460;7.090;2024-03-08T05:24:03;9.73;;;4.85;;
12359;SDS011;6244;51.460;7.090;2024-03-08T05:29:00;9.95;;;5.60;;
12359;SDS011;6244;51.460;7.090;2024-03-08T05:33:56;9.82;;;5.90;;
12359;SDS011;6244;51.460;7.090;2024-03-08T05:38:54;12.32;;;6.10;;
12359;SDS011;6244;51.460;7.090;2024-03-08T05:43:51;15.27;;;6.90;;
12359;SDS011;6244;51.460;7.090;2024-03-08T05:48:48;12.07;;;6.18;;
12359;SDS011;6244;51.460;7.090;2024-03-08T05:53:45;13.63;;;5.38;;
12359;SDS011;6244;51.460;7.090;2024-03-08T05:58:43;12.15;;;5.97;;
12359;SDS011;6244;51.460;7.090;2024-03-08T06:03:40;13.45;;;6.55;;
12359;SDS011;6244;51.460;7.090;2024-03-08T06:08:40;9.25;;;5.53;;
12359;SDS011;6244;51.460;7.090;2024-03-08T06:13:38;12.45;;;6.57;;
12359;SDS011;6244;51.460;7.090;2024-03-08T06:18:36;10.55;;;5.75;;
12359;SDS011;6244;51.460;7.090;2024-03-08T06:23:33;18.10;;;7.53;;
12359;SDS011;6244;51.460;7.090;2024-03-08T06:28:33;11.50;;;5.70;;
12359;SDS011;6244;51.460;7.090;2024-03-08T06:33:30;10.30;;;5.65;;
12359;SDS011;6244;51.460;7.090;2024-03-08T06:38:28;13.27;;;6.65;;
12359;SDS011;6244;51.460;7.090;2024-03-08T06:43:25;12.07;;;5.78;;
12359;SDS011;6244;51.460;7.090;2024-03-08T06:48:28;10.67;;;5.47;;
12359;SDS011;6244;51.460;7.090;2024-03-08T06:53:24;15.45;;;6.95;;
12359;SDS011;6244;51.460;7.090;2024-03-08T06:58:22;9.68;;;5.80;;
12359;SDS011;6244;51.460;7.090;2024-03-08T07:03:19;11.25;;;5.75;;
12359;SDS011;6244;51.460;7.090;2024-03-08T07:08:17;9.68;;;6.03;;
12359;SDS011;6244;51.460;7.090;2024-03-08T07:13:13;11.32;;;6.25;;
12359;SDS011;6244;51.460;7.090;2024-03-08T07:18:11;14.13;;;6.18;;
12359;SDS011;6244;51.460;7.090;2024-03-08T07:23:10;9.75;;;5.82;;
12359;SDS011;6244;51.460;7.090;2024-03-08T07:28:26;10.55;;;6.90;;
12359;SDS011;6244;51.460;7.090;2024-03-08T07:33:26;14.15;;;5.72;;
12359;SDS011;6244;51.460;7.090;2024-03-08T07:38:23;13.05;;;6.93;;
12359;SDS011;6244;51.460;7.090;2024-03-08T07:43:19;11.32;;;6.45;;
12359;SDS011;6244;51.460;7.090;2024-03-08T07:48:17;10.90;;;5.80;;
12359;SDS011;6244;51.460;7.090;2024-03-08T07:53:15;9.43;;;6.13;;
12359;SDS011;6244;51.460;7.090;2024-03-08T07:58:11;16.48;;;6.93;;
12359;SDS011;6244;51.460;7.090;2024-03-08T08:03:08;12.25;;;5.90;;
12359;SDS011;6244;51.460;7.090;2024-03-08T08:08:05;12.07;;;6.68;;
12359;SDS011;6244;51.460;7.090;2024-03-08T08:13:06;14.60;;;6.13;;
12359;SDS011;6244;51.460;7.090;2024-03-08T08:18:03;13.35;;;7.43;;
12359;SDS011;6244;51.460;7.090;2024-03-08T08:23:00;12.85;;;7.07;;
12359;SDS011;6244;51.460;7.090;2024-03-08T08:27:57;14.60;;;8.55;;
12359;SDS011;6244;51.460;7.090;2024-03-08T08:32:55;16.17;;;7.38;;
12359;SDS011;6244;51.460;7.090;2024-03-08T08:37:53;16.48;;;8.60;;
12359;SDS011;6244;51.460;7.090;2024-03-08T08:42:49;15.55;;;7.82;;
12359;SDS011;6244;51.460;7.090;2024-03-08T08:47:46;22.15;;;8.23;;
12359;SDS011;6244;51.460;7.090;2024-03-08T08:52:45;16.45;;;7.70;;
12359;SDS011;6244;51.460;7.090;2024-03-08T08:57:42;15.00;;;7.78;;
12359;SDS011;6244;51.460;7.090;2024-03-08T09:02:39;14.35;;;8.32;;
12359;SDS011;6244;51.460;7.090;2024-03-08T09:07:36;14.45;;;8.77;;
12359;SDS011;6244;51.460;7.090;2024-03-08T09:12:34;14.68;;;9.02;;
12359;SDS011;6244;51.460;7.090;2024-03-08T09:17:30;13.10;;;7.80;;
12359;SDS011;6244;51.460;7.090;2024-03-08T09:22:28;14.77;;;7.55;;
12359;SDS011;6244;51.460;7.090;2024-03-08T09:27:24;16.02;;;8.75;;
12359;SDS011;6244;51.460;7.090;2024-03-08T09:32:22;20.38;;;9.57;;
12359;SDS011;6244;51.460;7.090;2024-03-08T09:37:19;15.02;;;7.70;;
12359;SDS011;6244;51.460;7.090;2024-03-08T09:42:16;17.60;;;8.75;;
12359;SDS011;6244;51.460;7.090;2024-03-08T09:47:14;13.48;;;7.43;;
12359;SDS011;6244;51.460;7.090;2024-03-08T09:52:12;14.23;;;7.80;;
12359;SDS011;6244;51.460;7.090;2024-03-08T09:57:10;14.57;;;7.88;;
12359;SDS011;6244;51.460;7.090;2024-03-08T10:02:08;16.40;;;8.43;;
12359;SDS011;6244;51.460;7.090;2024-03-08T10:07:10;16.50;;;8.48;;
12359;SDS011;6244;51.460;7.090;2024-03-08T10:12:08;14.32;;;7.85;;
12359;SDS011;6244;51.460;7.090;2024-03-08T10:17:06;15.73;;;8.30;;
12359;SDS011;6244;51.460;7.090;2024-03-08T10:22:02;14.02;;;7.70;;
12359;SDS011;6244;51.460;7.090;2024-03-08T10:27:00;14.07;;;8.15;;
12359;SDS011;6244;51.460;7.090;2024-03-08T10:32:00;15.15;;;8.00;;
12359;SDS011;6244;51.460;7.090;2024-03-08T10:37:03;18.83;;;9.68;;
12359;SDS011;6244;51.460;7.090;2024-03-08T10:42:02;17.00;;;8.40;;
12359;SDS011;6244;51.460;7.090;2024-03-08T10:47:01;16.17;;;8.43;;
12359;SDS011;6244;51.460;7.090;2024-03-08T10:52:02;19.42;;;9.15;;
12359;SDS011;6244;51.460;7.090;2024-03-08T10:57:00;15.98;;;9.73;;
12359;SDS011;6244;51.460;7.090;2024-03-08T11:02:02;17.25;;;9.02;;
12359;SDS011;6244;51.460;7.090;2024-03-08T11:07:02;16.95;;;8.77;;
12359;SDS011;6244;51.460;7.090;2024-03-08T11:17:22;14.85;;;8.98;;
12359;SDS011;6244;51.460;7.090;2024-03-08T11:22:23;13.63;;;9.00;;
12359;SDS011;6244;51.460;7.090;2024-03-08T11:27:28;15.00;;;8.82;;
12359;SDS011;6244;51.460;7.090;2024-03-08T11:32:28;15.80;;;8.95;;
12359;SDS011;6244;51.460;7.090;2024-03-08T11:37:27;18.42;;;10.07;;
12359;SDS011;6244;51.460;7.090;2024-03-08T11:42:25;15.07;;;8.55;;
12359;SDS011;6244;51.460;7.090;2024-03-08T11:47:22;17.05;;;8.48;;
12359;SDS011;6244;51.460;7.090;2024-03-08T11:52:20;16.63;;;8.70;;
12359;SDS011;6244;51.460;7.090;2024-03-08T11:57:17;13.32;;;8.07;;
12359;SDS011;6244;51.460;7.090;2024-03-08T12:02:14;17.55;;;9.20;;
12359;SDS011;6244;51.460;7.090;2024-03-08T12:07:11;14.65;;;9.35;;
12359;SDS011;6244;51.460;7.090;2024-03-08T12:12:10;12.98;;;8.48;;
12359;SDS011;6244;51.460;7.090;2024-03-08T12:17:07;14.07;;;8.00;;
12359;SDS011;6244;51.460;7.090;2024-03-08T12:22:08;14.65;;;7.82;;
12359;SDS011;6244;51.460;7.090;2024-03-08T12:27:18;13.23;;;8.05;;
12359;SDS011;6244;51.460;7.090;2024-03-08T12:32:15;16.13;;;7.75;;
12359;SDS011;6244;51.460;7.090;2024-03-08T12:37:12;12.93;;;7.28;;
12359;SDS011;6244;51.460;7.090;2024-03-08T12:42:08;10.45;;;6.68;;
12359;SDS011;6244;51.460;7.090;2024-03-08T12:47:06;11.23;;;6.63;;
12359;SDS011;6244;51.460;7.090;2024-03-08T12:52:03;6.80;;;3.88;;
12359;SDS011;6244;51.460;7.090;2024-03-08T12:57:05;7.97;;;4.50;;
12359;SDS011;6244;51.460;7.090;2024-03-08T13:02:02;10.20;;;4.45;;
12359;SDS011;6244;51.460;7.090;2024-03-08T13:07:02;6.93;;;4.93;;
12359;SDS011;6244;51.460;7.090;2024-03-08T13:11:59;7.10;;;4.13;;
12359;SDS011;6244;51.460;7.090;2024-03-08T13:16:56;7.50;;;4.32;;
12359;SDS011;6244;51.460;7.090;2024-03-08T13:21:52;6.20;;;3.88;;
12359;SDS011;6244;51.460;7.090;2024-03-08T13:26:50;6.88;;;4.53;;
12359;SDS011;6244;51.460;7.090;2024-03-08T13:31:47;7.68;;;4.95;;
12359;SDS011;6244;51.460;7.090;2024-03-08T13:36:46;8.30;;;4.55;;
12359;SDS011;6244;51.460;7.090;2024-03-08T13:41:46;8.63;;;4.85;;
12359;SDS011;6244;51.460;7.090;2024-03-08T13:46:46;6.85;;;4.45;;
12359;SDS011;6244;51.460;7.090;2024-03-08T13:51:46;6.47;;;4.45;;
12359;SDS011;6244;51.460;7.090;2024-03-08T13:56:44;9.32;;;4.68;;
12359;SDS011;6244;51.460;7.090;2024-03-08T14:01:41;7.68;;;4.20;;
12359;SDS011;6244;51.460;7.090;2024-03-08T14:06:40;7.35;;;4.72;;
12359;SDS011;6244;51.460;7.090;2024-03-08T14:11:36;8.70;;;4.47;;
12359;SDS011;6244;51.460;7.090;2024-03-08T14:16:34;7.88;;;4.82;;
12359;SDS011;6244;51.460;7.090;2024-03-08T14:21:32;6.13;;;4.65;;
12359;SDS011;6244;51.460;7.090;2024-03-08T14:26:30;7.88;;;4.93;;
12359;SDS011;6244;51.460;7.090;2024-03-08T14:31:27;6.82;;;4.13;;
12359;SDS011;6244;51.460;7.090;2024-03-08T14:36:25;6.90;;;4.68;;
12359;SDS011;6244;51.460;7.090;2024-03-08T14:41:22;9.20;;;5.07;;
12359;SDS011;6244;51.460;7.090;2024-03-08T14:46:20;8.50;;;4.68;;
12359;SDS011;6244;51.460;7.090;2024-03-08T14:51:26;9.15;;;4.63;;
12359;SDS011;6244;51.460;7.090;2024-03-08T14:56:23;7.43;;;4.68;;
12359;SDS011;6244;51.460;7.090;2024-03-08T15:01:23;9.23;;;5.15;;
12359;SDS011;6244;51.460;7.090;2024-03-08T15:06:24;9.00;;;4.83;;
12359;SDS011;6244;51.460;7.090;2024-03-08T15:11:21;8.10;;;4.47;;
12359;SDS011;6244;51.460;7.090;2024-03-08T15:16:20;8.13;;;4.63;;
12359;SDS011;6244;51.460;7.090;2024-03-08T15:21:20;7.93;;;4.68;;
12359;SDS011;6244;51.460;7.090;2024-03-08T15:26:20;8.70;;;5.82;;
12359;SDS011;6244;51.460;7.090;2024-03-08T15:31:17;9.20;;;5.53;;
12359;SDS011;6244;51.460;7.090;2024-03-08T15:36:16;10.60;;;5.53;;
12359;SDS011;6244;51.460;7.090;2024-03-08T15:41:17;10.48;;;5.28;;
12359;SDS011;6244;51.460;7.090;2024-03-08T15:46:15;10.70;;;5.70;;
12359;SDS011;6244;51.460;7.090;2024-03-08T15:51:13;9.30;;;5.15;;
12359;SDS011;6244;51.460;7.090;2024-03-08T15:56:12;8.40;;;5.07;;
12359;SDS011;6244;51.460;7.090;2024-03-08T16:01:11;9.77;;;6.32;;
12359;SDS011;6244;51.460;7.090;2024-03-08T16:06:11;10.85;;;6.32;;
12359;SDS011;6244;51.460;7.090;2024-03-08T16:11:08;14.57;;;5.80;;
12359;SDS011;6244;51.460;7.090;2024-03-08T16:16:05;11.38;;;5.80;;
12359;SDS011;6244;51.460;7.090;2024-03-08T16:21:04;11.35;;;6.18;;
12359;SDS011;6244;51.460;7.090;2024-03-08T16:26:02;9.70;;;5.60;;
12359;SDS011;6244;51.460;7.090;2024-03-08T16:31:00;10.35;;;6.25;;
12359;SDS011;6244;51.460;7.090;2024-03-08T16:35:59;10.55;;;5.65;;
12359;SDS011;6244;51.460;7.090;2024-03-08T16:40:59;9.02;;;5.45;;
12359;SDS011;6244;51.460;7.090;2024-03-08T16:45:56;9.98;;;5.38;;
12359;SDS011;6244;51.460;7.090;2024-03-08T16:50:55;12.05;;;5.45;;
12359;SDS011;6244;51.460;7.090;2024-03-08T16:55:52;11.02;;;5.55;;
12359;SDS011;6244;51.460;7.090;2024-03-08T17:00:53;13.55;;;6.65;;
12359;SDS011;6244;51.460;7.090;2024-03-08T17:05:51;12.05;;;6.05;;
12359;SDS011;6244;51.460;7.090;2024-03-08T17:10:50;10.77;;;5.50;;
12359;SDS011;6244;51.460;7.090;2024-03-08T17:15:47;9.88;;;4.38;;
12359;SDS011;6244;51.460;7.090;2024-03-08T17:20:45;7.97;;;4.72;;
12359;SDS011;6244;51.460;7.090;2024-03-08T17:25:42;10.23;;;4.63;;
12359;SDS011;6244;51.460;7.090;2024-03-08T17:30:41;9.30;;;4.55;;
12359;SDS011;6244;51.460;7.090;2024-03-08T17:35:39;10.73;;;5.07;;
12359;SDS011;6244;51.460;7.090;2024-03-08T17:40:37;9.15;;;4.72;;
12359;SDS011;6244;51.460;7.090;2024-03-08T17:45:34;7.38;;;4.38;;
12359;SDS011;6244;51.460;7.090;2024-03-08T17:50:31;9.07;;;5.07;;
12359;SDS011;6244;51.460;7.090;2024-03-08T17:55:27;9.27;;;4.55;;
12359;SDS011;6244;51.460;7.090;2024-03-08T18:00:26;7.55;;;4.95;;
12359;SDS011;6244;51.460;7.090;2024-03-08T18:05:25;7.90;;;4.68;;
12359;SDS011;6244;51.460;7.090;2024-03-08T18:10:25;9.27;;;4.93;;
12359;SDS011;6244;51.460;7.090;2024-03-08T18:15:22;8.68;;;5.07;;
12359;SDS011;6244;51.460;7.090;2024-03-08T18:20:23;7.57;;;5.00;;
12359;SDS011;6244;51.460;7.090;2024-03-08T18:25:24;12.73;;;4.97;;
12359;SDS011;6244;51.460;7.090;2024-03-08T18:30:23;8.75;;;5.18;;
12359;SDS011;6244;51.460;7.090;2024-03-08T18:35:20;9.55;;;5.07;;
12359;SDS011;6244;51.460;7.090;2024-03-08T18:40:19;7.20;;;3.75;;
12359;SDS011;6244;51.460;7.090;2024-03-08T18:45:18;8.25;;;5.20;;
12359;SDS011;6244;51.460;7.090;2024-03-08T18:50:18;9.00;;;4.95;;
12359;SDS011;6244;51.460;7.090;2024-03-08T18:55:16;9.43;;;5.22;;
12359;SDS011;6244;51.460;7.090;2024-03-08T19:00:18;13.45;;;5.43;;
12359;SDS011;6244;51.460;7.090;2024-03-08T19:05:17;9.98;;;5.55;;
12359;SDS011;6244;51.460;7.090;2024-03-08T19:10:14;12.05;;;6.40;;
12359;SDS011;6244;51.460;7.090;2024-03-08T19:15:14;11.57;;;5.68;;
12359;SDS011;6244;51.460;7.090;2024-03-08T19:20:14;10.88;;;6.07;;
12359;SDS011;6244;51.460;7.090;2024-03-08T19:25:14;14.25;;;7.20;;
12359;SDS011;6244;51.460;7.090;2024-03-08T19:30:12;13.93;;;7.97;;
12359;SDS011;6244;51.460;7.090;2024-03-08T19:35:13;26.05;;;12.65;;
12359;SDS011;6244;51.460;7.090;2024-03-08T19:40:14;13.50;;;6.68;;
12359;SDS011;6244;51.460;7.090;2024-03-08T19:45:14;28.63;;;16.45;;
12359;SDS011;6244;51.460;7.090;2024-03-08T19:50:12;25.42;;;12.98;;
12359;SDS011;6244;51.460;7.090;2024-03-08T19:55:11;38.67;;;18.33;;
12359;SDS011;6244;51.460;7.090;2024-03-08T20:00:10;32.08;;;16.08;;
12359;SDS011;6244;51.460;7.090;2024-03-08T20:05:10;46.47;;;22.25;;
12359;SDS011;6244;51.460;7.090;2024-03-08T20:10:11;37.97;;;20.92;;
12359;SDS011;6244;51.460;7.090;2024-03-08T20:15:09;26.38;;;14.80;;
12359;SDS011;6244;51.460;7.090;2024-03-08T20:20:08;27.15;;;13.35;;
12359;SDS011;6244;51.460;7.090;2024-03-08T20:25:10;20.05;;;11.48;;
12359;SDS011;6244;51.460;7.090;2024-03-08T20:30:09;32.80;;;16.27;;
12359;SDS011;6244;51.460;7.090;2024-03-08T20:35:07;31.13;;;16.08;;
12359;SDS011;6244;51.460;7.090;2024-03-08T20:40:05;25.23;;;12.57;;
12359;SDS011;6244;51.460;7.090;2024-03-08T20:45:08;63.67;;;30.73;;
12359;SDS011;6244;51.460;7.090;2024-03-08T20:50:05;87.15;;;36.78;;
12359;SDS011;6244;51.460;7.090;2024-03-08T20:55:03;80.50;;;36.42;;
12359;SDS011;6244;51.460;7.090;2024-03-08T21:00:03;50.10;;;24.10;;
12359;SDS011;6244;51.460;7.090;2024-03-08T21:05:04;27.42;;;16.13;;
12359;SDS011;6244;51.460;7.090;2024-03-08T21:10:01;25.65;;;13.07;;
12359;SDS011;6244;51.460;7.090;2024-03-08T21:14:58;20.52;;;11.68;;
12359;SDS011;6244;51.460;7.090;2024-03-08T21:19:55;18.67;;;10.20;;
12359;SDS011;6244;51.460;7.090;2024-03-08T21:24:53;15.00;;;9.45;;
12359;SDS011;6244;51.460;7.090;2024-03-08T21:29:50;17.83;;;9.73;;
12359;SDS011;6244;51.460;7.090;2024-03-08T21:34:46;20.77;;;9.60;;
12359;SDS011;6244;51.460;7.090;2024-03-08T21:39:44;15.25;;;9.63;;
12359;SDS011;6244;51.460;7.090;2024-03-08T21:44:42;16.92;;;9.15;;
12359;SDS011;6244;51.460;7.090;2024-03-08T21:49:38;15.75;;;8.07;;
12359;SDS011;6244;51.460;7.090;2024-03-08T21:54:39;20.00;;;9.80;;
12359;SDS011;6244;51.460;7.090;2024-03-08T21:59:35;20.42;;;10.82;;
12359;SDS011;6244;51.460;7.090;2024-03-08T22:04:36;19.08;;;11.27;;
12359;SDS011;6244;51.460;7.090;2024-03-08T22:09:33;17.13;;;10.48;;
12359;SDS011;6244;51.460;7.090;2024-03-08T22:14:29;17.38;;;8.60;;
12359;SDS011;6244;51.460;7.090;2024-03-08T22:19:26;19.58;;;10.13;;
12359;SDS011;6244;51.460;7.090;2024-03-08T22:24:24;20.05;;;9.50;;
12359;SDS011;6244;51.460;7.090;2024-03-08T22:29:20;20.60;;;10.38;;
12359;SDS011;6244;51.460;7.090;2024-03-08T22:34:17;15.55;;;9.65;;
12359;SDS011;6244;51.460;7.090;2024-03-08T22:39:13;17.77;;;9.77;;
12359;SDS011;6244;51.460;7.090;2024-03-08T22:44:15;17.27;;;9.30;;
12359;SDS011;6244;51.460;7.090;2024-03-08T22:49:11;16.95;;;8.50;;
12359;SDS011;6244;51.460;7.090;2024-03-08T22:54:08;17.35;;;8.93;;
12359;SDS011;6244;51.460;7.090;2024-03-08T22:59:04;16.17;;;8.02;;
12359;SDS011;6244;51.460;7.090;2024-03-08T23:04:03;17.85;;;8.90;;
12359;SDS011;6244;51.460;7.090;2024-03-08T23:09:03;12.73;;;7.38;;
12359;SDS011;6244;51.460;7.090;2024-03-08T23:14:07;18.27;;;8.50;;
12359;SDS011;6244;51.460;7.090;2024-03-08T23:19:07;16.30;;;8.32;;
12359;SDS011;6244;51.460;7.090;2024-03-08T23:24:03;17.63;;;9.20;;
12359;SDS011;6244;51.460;7.090;2024-03-08T23:29:01;18.27;;;8.50;;
12359;SDS011;6244;51.460;7.090;2024-03-08T23:33:58;18.70;;;8.45;;
12359;SDS011;6244;51.460;7.090;2024-03-08T23:38:56;19.85;;;7.22;;
12359;SDS011;6244;51.460;7.090;2024-03-08T23:43:53;13.98;;;7.25;;
12359;SDS011;6244;51.460;7.090;2024-03-08T23:48:50;16.45;;;7.25;;
12359;SDS011;6244;51.460;7.090;2024-03-08T23:53:47;16.23;;;7.43;;
12359;SDS011;6244;51.460;7.090;2024-03-08T23:58:45;16.25;;;7.82;;
